sensor_id;sensor_type;location;lat;lon;timestamp;P1;durP1;ratioP1;P2;durP2;ratioP2
64710;SDS011;51139;45.626;6.850;2024-01-11T08:01:34;1.30;;;0.80;;
64710;SDS011;51139;45.626;6.850;2024-01-11T08:04:01;2.50;;;1.25;;
64710;SDS011;51139;45.626;6.850;2024-01-11T08:06:27;2.90;;;1.20;;
64710;SDS011;51139;45.626;6.850;2024-01-11T08:08:53;1.27;;;1.00;;
64710;SDS011;51139;45.626;6.850;2024-01-11T08:11:18;2.05;;;0.90;;
64710;SDS011;51139;45.626;6.850;2024-01-11T08:13:44;0.85;;;0.70;;
64710;SDS011;51139;45.626;6.850;2024-01-11T08:16:14;0.50;;;0.50;;
64710;SDS011;51139;45.626;6.850;2024-01-11T08:18:43;0.57;;;0.57;;
64710;SDS011;51139;45.626;6.850;2024-01-11T08:21:09;1.15;;;0.88;;
64710;SDS011;51139;45.626;6.850;2024-01-11T08:23:35;2.15;;;1.23;;
64710;SDS011;51139;45.626;6.850;2024-01-11T08:26:04;0.35;;;0.35;;
64710;SDS011;51139;45.626;6.850;2024-01-11T08:28:30;0.20;;;0.20;;
64710;SDS011;51139;45.626;6.850;2024-01-11T08:30:55;1.40;;;0.80;;
64710;SDS011;51139;45.626;6.850;2024-01-11T08:33:21;0.80;;;0.52;;
64710;SDS011;51139;45.626;6.850;2024-01-11T08:35:46;0.32;;;0.32;;
64710;SDS011;51139;45.626;6.850;2024-01-11T08:38:12;0.28;;;0.28;;
64710;SDS011;51139;45.626;6.850;2024-01-11T08:40:37;0.35;;;0.35;;
64710;SDS011;51139;45.626;6.850;2024-01-11T08:43:03;0.30;;;0.30;;
64710;SDS011;51139;45.626;6.850;2024-01-11T08:45:28;0.30;;;0.30;;
64710;SDS011;51139;45.626;6.850;2024-01-11T08:47:56;0.30;;;0.30;;
64710;SDS011;51139;45.626;6.850;2024-01-11T08:50:21;0.40;;;0.40;;
64710;SDS011;51139;45.626;6.850;2024-01-11T08:52:47;0.40;;;0.40;;
64710;SDS011;51139;45.626;6.850;2024-01-11T08:55:13;1.05;;;0.32;;
64710;SDS011;51139;45.626;6.850;2024-01-11T08:57:39;0.68;;;0.30;;
64710;SDS011;51139;45.626;6.850;2024-01-11T09:00:04;0.38;;;0.35;;
64710;SDS011;51139;45.626;6.850;2024-01-11T09:02:33;0.30;;;0.30;;
64710;SDS011;51139;45.626;6.850;2024-01-11T09:04:58;0.30;;;0.30;;
64710;SDS011;51139;45.626;6.850;2024-01-11T09:07:24;0.40;;;0.40;;
64710;SDS011;51139;45.626;6.850;2024-01-11T09:09:49;0.40;;;0.40;;
64710;SDS011;51139;45.626;6.850;2024-01-11T09:12:14;0.77;;;0.40;;
64710;SDS011;51139;45.626;6.850;2024-01-11T09:14:40;1.52;;;0.45;;
64710;SDS011;51139;45.626;6.850;2024-01-11T09:17:05;2.17;;;0.45;;
64710;SDS011;51139;45.626;6.850;2024-01-11T09:19:33;0.40;;;0.38;;
64710;SDS011;51139;45.626;6.850;2024-01-11T09:21:59;0.50;;;0.32;;
64710;SDS011;51139;45.626;6.850;2024-01-11T09:24:25;0.82;;;0.43;;
64710;SDS011;51139;45.626;6.850;2024-01-11T09:26:50;1.17;;;0.40;;
64710;SDS011;51139;45.626;6.850;2024-01-11T09:29:16;0.35;;;0.32;;
64710;SDS011;51139;45.626;6.850;2024-01-11T09:31:41;0.47;;;0.40;;
64710;SDS011;51139;45.626;6.850;2024-01-11T09:34:07;0.28;;;0.28;;
64710;SDS011;51139;45.626;6.850;2024-01-11T09:36:32;0.30;;;0.30;;
64710;SDS011;51139;45.626;6.850;2024-01-11T09:38:58;0.50;;;0.45;;
64710;SDS011;51139;45.626;6.850;2024-01-11T09:41:24;0.70;;;0.50;;
64710;SDS011;51139;45.626;6.850;2024-01-11T09:43:50;1.17;;;0.60;;
64710;SDS011;51139;45.626;6.850;2024-01-11T09:46:19;2.65;;;0.40;;
64710;SDS011;51139;45.626;6.850;2024-01-11T09:48:46;0.70;;;0.50;;
64710;SDS011;51139;45.626;6.850;2024-01-11T09:51:13;0.50;;;0.50;;
64710;SDS011;51139;45.626;6.850;2024-01-11T09:53:39;0.88;;;0.60;;
64710;SDS011;51139;45.626;6.850;2024-01-11T09:56:09;1.23;;;0.40;;
64710;SDS011;51139;45.626;6.850;2024-01-11T09:58:35;0.43;;;0.43;;
64710;SDS011;51139;45.626;6.850;2024-01-11T10:01:01;1.75;;;0.50;;
64710;SDS011;51139;45.626;6.850;2024-01-11T10:03:27;1.40;;;0.57;;
64710;SDS011;51139;45.626;6.850;2024-01-11T10:05:54;0.95;;;0.60;;
64710;SDS011;51139;45.626;6.850;2024-01-11T10:08:22;1.23;;;0.60;;
64710;SDS011;51139;45.626;6.850;2024-01-11T10:10:48;1.13;;;0.90;;
64710;SDS011;51139;45.626;6.850;2024-01-11T10:13:15;2.20;;;1.20;;
64710;SDS011;51139;45.626;6.850;2024-01-11T10:15:41;0.85;;;0.70;;
64710;SDS011;51139;45.626;6.850;2024-01-11T10:18:07;1.25;;;0.80;;
64710;SDS011;51139;45.626;6.850;2024-01-11T10:20:32;2.72;;;1.10;;
64710;SDS011;51139;45.626;6.850;2024-01-11T10:22:58;2.78;;;1.05;;
64710;SDS011;51139;45.626;6.850;2024-01-11T10:25:24;1.42;;;0.93;;
64710;SDS011;51139;45.626;6.850;2024-01-11T10:27:50;1.77;;;0.95;;
64710;SDS011;51139;45.626;6.850;2024-01-11T10:30:17;2.33;;;0.90;;
64710;SDS011;51139;45.626;6.850;2024-01-11T10:32:46;2.15;;;0.90;;
64710;SDS011;51139;45.626;6.850;2024-01-11T10:35:12;1.48;;;0.80;;
64710;SDS011;51139;45.626;6.850;2024-01-11T10:37:38;1.27;;;0.60;;
64710;SDS011;51139;45.626;6.850;2024-01-11T10:40:05;0.63;;;0.45;;
64710;SDS011;51139;45.626;6.850;2024-01-11T10:42:44;0.93;;;0.60;;
64710;SDS011;51139;45.626;6.850;2024-01-11T10:45:14;0.93;;;0.65;;
64710;SDS011;51139;45.626;6.850;2024-01-11T10:48:24;1.90;;;0.90;;
64710;SDS011;51139;45.626;6.850;2024-01-11T10:50:43;1.70;;;0.70;;
64710;SDS011;51139;45.626;6.850;2024-01-11T10:55:41;1.27;;;0.52;;
64710;SDS011;51139;45.626;6.850;2024-01-11T10:58:07;1.35;;;1.10;;
64710;SDS011;51139;45.626;6.850;2024-01-11T11:00:33;1.65;;;0.80;;
64710;SDS011;51139;45.626;6.850;2024-01-11T11:03:00;1.65;;;0.65;;
64710;SDS011;51139;45.626;6.850;2024-01-11T11:05:28;1.80;;;0.70;;
64710;SDS011;51139;45.626;6.850;2024-01-11T11:07:55;1.45;;;0.80;;
64710;SDS011;51139;45.626;6.850;2024-01-11T11:10:21;0.75;;;0.40;;
64710;SDS011;51139;45.626;6.850;2024-01-11T11:12:47;0.60;;;0.40;;
64710;SDS011;51139;45.626;6.850;2024-01-11T11:15:14;0.60;;;0.43;;
64710;SDS011;51139;45.626;6.850;2024-01-11T11:17:40;0.75;;;0.40;;
64710;SDS011;51139;45.626;6.850;2024-01-11T11:20:07;1.52;;;0.50;;
64710;SDS011;51139;45.626;6.850;2024-01-11T11:22:33;1.08;;;0.60;;
64710;SDS011;51139;45.626;6.850;2024-01-11T11:25:04;0.82;;;0.43;;
64710;SDS011;51139;45.626;6.850;2024-01-11T11:27:36;1.33;;;0.60;;
64710;SDS011;51139;45.626;6.850;2024-01-11T11:30:02;1.05;;;0.70;;
64710;SDS011;51139;45.626;6.850;2024-01-11T11:32:36;0.90;;;0.68;;
64710;SDS011;51139;45.626;6.850;2024-01-11T11:35:02;0.63;;;0.40;;
64710;SDS011;51139;45.626;6.850;2024-01-11T11:37:29;1.08;;;0.80;;
64710;SDS011;51139;45.626;6.850;2024-01-11T11:39:54;1.52;;;0.70;;
64710;SDS011;51139;45.626;6.850;2024-01-11T11:42:22;0.90;;;0.60;;
64710;SDS011;51139;45.626;6.850;2024-01-11T11:44:48;1.63;;;0.70;;
64710;SDS011;51139;45.626;6.850;2024-01-11T11:47:18;1.92;;;1.00;;
64710;SDS011;51139;45.626;6.850;2024-01-11T11:50:03;2.13;;;0.82;;
64710;SDS011;51139;45.626;6.850;2024-01-11T11:52:39;1.65;;;0.88;;
64710;SDS011;51139;45.626;6.850;2024-01-11T11:55:07;1.17;;;0.68;;
64710;SDS011;51139;45.626;6.850;2024-01-11T11:57:35;1.15;;;0.60;;
64710;SDS011;51139;45.626;6.850;2024-01-11T12:00:02;2.05;;;0.70;;
64710;SDS011;51139;45.626;6.850;2024-01-11T12:02:31;1.02;;;0.40;;
64710;SDS011;51139;45.626;6.850;2024-01-11T12:04:57;2.72;;;0.65;;
64710;SDS011;51139;45.626;6.850;2024-01-11T12:07:23;0.60;;;0.50;;
64710;SDS011;51139;45.626;6.850;2024-01-11T12:09:48;0.60;;;0.45;;
64710;SDS011;51139;45.626;6.850;2024-01-11T12:12:16;0.93;;;0.60;;
64710;SDS011;51139;45.626;6.850;2024-01-11T12:14:42;0.60;;;0.50;;
64710;SDS011;51139;45.626;6.850;2024-01-11T12:17:08;2.28;;;0.60;;
64710;SDS011;51139;45.626;6.850;2024-01-11T12:19:34;1.48;;;0.52;;
64710;SDS011;51139;45.626;6.850;2024-01-11T12:21:59;0.75;;;0.50;;
64710;SDS011;51139;45.626;6.850;2024-01-11T12:24:25;2.03;;;0.43;;
64710;SDS011;51139;45.626;6.850;2024-01-11T12:26:51;0.50;;;0.50;;
64710;SDS011;51139;45.626;6.850;2024-01-11T12:29:18;0.73;;;0.40;;
64710;SDS011;51139;45.626;6.850;2024-01-11T12:31:44;1.25;;;0.57;;
64710;SDS011;51139;45.626;6.850;2024-01-11T12:34:11;2.17;;;0.50;;
64710;SDS011;51139;45.626;6.850;2024-01-11T12:36:36;0.40;;;0.40;;
64710;SDS011;51139;45.626;6.850;2024-01-11T12:39:03;1.42;;;0.47;;
64710;SDS011;51139;45.626;6.850;2024-01-11T12:41:30;0.70;;;0.40;;
64710;SDS011;51139;45.626;6.850;2024-01-11T12:43:56;1.50;;;0.68;;
64710;SDS011;51139;45.626;6.850;2024-01-11T12:46:22;0.80;;;0.50;;
64710;SDS011;51139;45.626;6.850;2024-01-11T12:48:48;1.20;;;0.60;;
64710;SDS011;51139;45.626;6.850;2024-01-11T12:51:15;0.73;;;0.47;;
64710;SDS011;51139;45.626;6.850;2024-01-11T12:53:44;0.50;;;0.47;;
64710;SDS011;51139;45.626;6.850;2024-01-11T12:56:10;0.50;;;0.50;;
64710;SDS011;51139;45.626;6.850;2024-01-11T12:58:38;0.75;;;0.55;;
64710;SDS011;51139;45.626;6.850;2024-01-11T13:01:04;2.22;;;0.50;;
64710;SDS011;51139;45.626;6.850;2024-01-11T13:03:32;0.57;;;0.43;;
64710;SDS011;51139;45.626;6.850;2024-01-11T13:05:59;0.57;;;0.40;;
64710;SDS011;51139;45.626;6.850;2024-01-11T13:08:24;0.52;;;0.40;;
64710;SDS011;51139;45.626;6.850;2024-01-11T13:10:52;1.13;;;0.40;;
64710;SDS011;51139;45.626;6.850;2024-01-11T13:13:17;1.42;;;0.50;;
64710;SDS011;51139;45.626;6.850;2024-01-11T13:15:43;1.60;;;0.70;;
64710;SDS011;51139;45.626;6.850;2024-01-11T13:18:08;0.35;;;0.30;;
64710;SDS011;51139;45.626;6.850;2024-01-11T13:20:34;0.63;;;0.35;;
64710;SDS011;51139;45.626;6.850;2024-01-11T13:25:44;0.65;;;0.47;;
64710;SDS011;51139;45.626;6.850;2024-01-11T13:28:10;0.40;;;0.40;;
64710;SDS011;51139;45.626;6.850;2024-01-11T13:30:40;0.32;;;0.32;;
64710;SDS011;51139;45.626;6.850;2024-01-11T13:33:06;0.55;;;0.38;;
64710;SDS011;51139;45.626;6.850;2024-01-11T13:35:40;0.70;;;0.40;;
64710;SDS011;51139;45.626;6.850;2024-01-11T13:38:08;0.52;;;0.50;;
64710;SDS011;51139;45.626;6.850;2024-01-11T13:40:33;1.05;;;0.52;;
64710;SDS011;51139;45.626;6.850;2024-01-11T13:42:59;1.15;;;0.60;;
64710;SDS011;51139;45.626;6.850;2024-01-11T13:45:25;0.95;;;0.50;;
64710;SDS011;51139;45.626;6.850;2024-01-11T13:47:51;0.85;;;0.50;;
64710;SDS011;51139;45.626;6.850;2024-01-11T13:50:19;1.13;;;0.50;;
64710;SDS011;51139;45.626;6.850;2024-01-11T13:52:44;0.93;;;0.50;;
64710;SDS011;51139;45.626;6.850;2024-01-11T13:55:10;0.88;;;0.60;;
64710;SDS011;51139;45.626;6.850;2024-01-11T13:57:36;0.60;;;0.50;;
64710;SDS011;51139;45.626;6.850;2024-01-11T14:00:03;2.05;;;0.70;;
64710;SDS011;51139;45.626;6.850;2024-01-11T14:02:28;0.50;;;0.47;;
64710;SDS011;51139;45.626;6.850;2024-01-11T14:04:54;0.75;;;0.50;;
64710;SDS011;51139;45.626;6.850;2024-01-11T14:07:19;1.33;;;0.60;;
64710;SDS011;51139;45.626;6.850;2024-01-11T14:09:44;1.17;;;0.40;;
64710;SDS011;51139;45.626;6.850;2024-01-11T14:12:11;1.00;;;0.52;;
64710;SDS011;51139;45.626;6.850;2024-01-11T14:14:36;0.73;;;0.63;;
64710;SDS011;51139;45.626;6.850;2024-01-11T14:17:01;1.15;;;0.70;;
64710;SDS011;51139;45.626;6.850;2024-01-11T14:19:27;2.10;;;0.90;;
64710;SDS011;51139;45.626;6.850;2024-01-11T14:21:53;1.42;;;0.70;;
64710;SDS011;51139;45.626;6.850;2024-01-11T14:24:19;1.67;;;0.85;;
64710;SDS011;51139;45.626;6.850;2024-01-11T14:26:44;1.77;;;0.90;;
64710;SDS011;51139;45.626;6.850;2024-01-11T14:29:09;1.73;;;1.00;;
64710;SDS011;51139;45.626;6.850;2024-01-11T14:31:36;1.52;;;1.17;;
64710;SDS011;51139;45.626;6.850;2024-01-11T14:34:02;1.60;;;1.10;;
64710;SDS011;51139;45.626;6.850;2024-01-11T14:36:27;2.58;;;1.20;;
64710;SDS011;51139;45.626;6.850;2024-01-11T14:38:53;3.70;;;1.42;;
64710;SDS011;51139;45.626;6.850;2024-01-11T14:41:18;2.58;;;1.50;;
64710;SDS011;51139;45.626;6.850;2024-01-11T14:43:44;2.88;;;1.17;;
64710;SDS011;51139;45.626;6.850;2024-01-11T14:46:11;3.35;;;1.30;;
64710;SDS011;51139;45.626;6.850;2024-01-11T14:48:36;2.00;;;1.00;;
64710;SDS011;51139;45.626;6.850;2024-01-11T14:51:02;2.55;;;1.00;;
64710;SDS011;51139;45.626;6.850;2024-01-11T14:53:30;1.65;;;0.90;;
64710;SDS011;51139;45.626;6.850;2024-01-11T14:55:55;1.83;;;1.10;;
64710;SDS011;51139;45.626;6.850;2024-01-11T14:58:21;1.27;;;0.80;;
64710;SDS011;51139;45.626;6.850;2024-01-11T15:00:46;1.52;;;0.88;;
64710;SDS011;51139;45.626;6.850;2024-01-11T15:03:12;3.38;;;1.50;;
64710;SDS011;51139;45.626;6.850;2024-01-11T15:05:37;3.50;;;1.30;;
64710;SDS011;51139;45.626;6.850;2024-01-11T15:08:03;1.88;;;1.30;;
64710;SDS011;51139;45.626;6.850;2024-01-11T15:10:29;2.35;;;1.30;;
64710;SDS011;51139;45.626;6.850;2024-01-11T15:12:55;1.50;;;1.00;;
